createdAt,value
2023-05-22T00:00:25.883Z,12.69
2023-05-22T00:01:26.989Z,12.60
2023-05-22T00:02:24.740Z,13.39
2023-05-22T00:03:24.754Z,12.89
2023-05-22T00:04:24.842Z,13
2023-05-22T00:06:24.546Z,12.19
2023-05-22T00:07:24.742Z,13.19
2023-05-22T00:08:25.810Z,12.80
2023-05-22T00:09:24.233Z,13.10
2023-05-22T00:10:24.378Z,12.80
2023-05-22T00:11:24.304Z,13.10
2023-05-22T00:13:24.539Z,12.5
2023-05-22T00:14:24.379Z,12.89
2023-05-22T00:15:24.558Z,13.69
2023-05-22T00:16:24.499Z,13.5
2023-05-22T00:17:24.620Z,12.69
2023-05-22T00:18:24.726Z,13.10
2023-05-22T00:20:24.825Z,12.80
2023-05-22T00:21:24.577Z,12.60
2023-05-22T00:22:24.602Z,13.39
2023-05-22T00:23:24.244Z,13
2023-05-22T00:24:29.760Z,12.89
2023-05-22T00:26:24.357Z,12.69
2023-05-22T00:27:24.022Z,13
2023-05-22T00:28:24.530Z,12.80
2023-05-22T00:29:24.128Z,12.5
2023-05-22T00:30:32.951Z,12.89
2023-05-22T00:31:24.781Z,12.39
2023-05-22T00:32:24.670Z,13.39
2023-05-22T00:33:24.493Z,13.19
2023-05-22T00:34:24.532Z,12.5
2023-05-22T00:35:24.729Z,12.69
2023-05-22T00:36:24.563Z,12.80
2023-05-22T00:37:24.406Z,12.69
2023-05-22T00:38:24.698Z,12.60
2023-05-22T00:39:25.204Z,13.10
2023-05-22T00:40:25.092Z,12.60
2023-05-22T00:41:24.378Z,13
2023-05-22T00:43:24.564Z,13.60
2023-05-22T00:44:24.732Z,13.5
2023-05-22T00:45:24.921Z,13.10
2023-05-22T00:46:24.966Z,12.80
2023-05-22T00:47:25.303Z,12.5
2023-05-22T00:48:24.376Z,12.80
2023-05-22T00:49:24.691Z,13.10
2023-05-22T00:50:24.952Z,12.89
2023-05-22T00:51:24.706Z,13.19
2023-05-22T00:52:43.920Z,14
2023-05-22T00:53:25.027Z,13.10
2023-05-22T00:54:24.775Z,13.60
2023-05-22T00:55:24.795Z,12.80
2023-05-22T00:56:24.459Z,13.39
2023-05-22T00:57:24.710Z,13.30
2023-05-22T00:58:24.505Z,13.60
2023-05-22T00:59:24.472Z,13.30
2023-05-22T01:00:25.761Z,13.19
2023-05-22T01:01:24.899Z,14.19
2023-05-22T01:02:24.525Z,13.60
2023-05-22T01:03:24.853Z,14.80
2023-05-22T01:04:24.697Z,13.39
2023-05-22T01:05:24.904Z,14.5
2023-05-22T01:06:25.136Z,13.5
2023-05-22T01:07:24.919Z,13.69
2023-05-22T01:08:24.792Z,13.60
2023-05-22T01:09:24.666Z,14.19
2023-05-22T01:10:24.756Z,13.60
2023-05-22T01:11:24.376Z,13.30
2023-05-22T01:12:24.415Z,13.19
2023-05-22T01:13:24.352Z,12.80
2023-05-22T01:14:24.537Z,13.19
2023-05-22T01:15:24.400Z,13
2023-05-22T01:16:24.450Z,14.69
2023-05-22T01:17:24.521Z,14.39
2023-05-22T01:18:24.514Z,14
2023-05-22T01:19:24.391Z,13.80
2023-05-22T01:20:24.584Z,14.19
2023-05-22T01:21:24.861Z,14.69
2023-05-22T01:23:24.846Z,14.30
2023-05-22T01:24:24.804Z,13.89
2023-05-22T01:25:25.357Z,13.80
2023-05-22T01:26:24.522Z,13.69
2023-05-22T01:27:24.762Z,13.89
2023-05-22T01:28:25.186Z,13.69
2023-05-22T01:29:25.187Z,14.5
2023-05-22T01:30:24.939Z,14.19
2023-05-22T01:32:24.774Z,13.5
2023-05-22T01:33:24.477Z,13.39
2023-05-22T01:34:25.059Z,14.10
2023-05-22T01:35:25.064Z,13.69
2023-05-22T01:36:24.702Z,14.39
2023-05-22T01:37:24.281Z,14.19
2023-05-22T01:38:24.998Z,13.60
2023-05-22T01:40:24.926Z,13.69
2023-05-22T01:41:24.953Z,14
2023-05-22T01:42:24.675Z,13.80
2023-05-22T01:44:24.745Z,14
2023-05-22T01:45:24.617Z,13.60
2023-05-22T01:46:24.796Z,14
2023-05-22T01:47:24.517Z,13.80
2023-05-22T01:48:24.605Z,14
2023-05-22T01:49:24.532Z,14.5
2023-05-22T01:50:24.782Z,13.69
2023-05-22T01:51:24.262Z,14.19
2023-05-22T01:52:25.006Z,13.69
2023-05-22T01:53:24.641Z,13.80
2023-05-22T01:54:24.421Z,14.30
2023-05-22T01:55:24.665Z,13.39
2023-05-22T01:56:24.423Z,14.10
2023-05-22T01:57:24.375Z,14.60
2023-05-22T01:58:24.424Z,14.39
2023-05-22T01:59:24.729Z,14
2023-05-22T02:00:26.534Z,13.69
2023-05-22T02:01:24.241Z,14.19
2023-05-22T02:02:24.386Z,14.10
2023-05-22T02:03:24.488Z,13.80
2023-05-22T02:04:24.624Z,13.30
2023-05-22T02:05:24.997Z,14.39
2023-05-22T02:08:24.730Z,14.30
2023-05-22T02:09:24.482Z,13.89
2023-05-22T02:10:24.742Z,14.30
2023-05-22T02:11:24.199Z,14.89
2023-05-22T02:12:25.146Z,15.10
2023-05-22T02:13:25.129Z,14.30
2023-05-22T02:14:24.801Z,15
2023-05-22T02:15:25.195Z,14.69
2023-05-22T02:16:24.996Z,14.19
2023-05-22T02:17:24.601Z,14.39
2023-05-22T02:18:24.705Z,14
2023-05-22T02:19:24.516Z,14.69
2023-05-22T02:20:25.191Z,14.89
2023-05-22T02:21:24.597Z,15.19
2023-05-22T02:22:24.869Z,15.10
2023-05-22T02:24:24.712Z,16.79
2023-05-22T02:25:24.648Z,15.5
2023-05-22T02:26:24.426Z,14.89
2023-05-22T02:28:24.830Z,15.39
2023-05-22T02:29:24.734Z,15.60
2023-05-22T02:30:25.251Z,15.5
2023-05-22T02:31:24.541Z,16.39
2023-05-22T02:32:24.972Z,15.19
2023-05-22T02:33:25.067Z,16.20
2023-05-22T02:34:24.601Z,14.80
2023-05-22T02:36:24.663Z,15.30
2023-05-22T02:37:24.641Z,14.89
2023-05-22T02:38:24.380Z,15.60
2023-05-22T02:39:24.261Z,13.80
2023-05-22T02:40:25.125Z,15.10
2023-05-22T02:42:24.341Z,15.19
2023-05-22T02:43:24.906Z,15.5
2023-05-22T02:44:24.613Z,16.20
2023-05-22T02:45:25.124Z,16.60
2023-05-22T02:46:24.981Z,15.19
2023-05-22T02:47:24.769Z,16.5
2023-05-22T02:48:24.951Z,15.89
2023-05-22T02:49:24.871Z,16.29
2023-05-22T02:50:25.306Z,15.80
2023-05-22T02:51:30.032Z,15.19
2023-05-22T02:52:25.035Z,16.29
2023-05-22T02:53:24.350Z,16.10
2023-05-22T02:54:24.358Z,15.19
2023-05-22T02:55:24.616Z,14.89
2023-05-22T02:56:24.665Z,15.10
2023-05-22T02:57:24.513Z,14.19
2023-05-22T02:58:24.410Z,15.19
2023-05-22T02:59:24.542Z,14.89
2023-05-22T03:00:25.859Z,14.69
2023-05-22T03:01:38.534Z,14.89
2023-05-22T03:02:25.001Z,15.39
2023-05-22T03:03:25.278Z,16.29
2023-05-22T03:04:24.529Z,15.69
2023-05-22T03:05:24.966Z,15.80
2023-05-22T03:06:25.046Z,15.69
2023-05-22T03:07:25.201Z,15.19
2023-05-22T03:09:24.570Z,16.79
2023-05-22T03:10:24.913Z,16.10
2023-05-22T03:11:24.950Z,15.5
2023-05-22T03:12:24.693Z,15.39
2023-05-22T03:13:24.311Z,16
2023-05-22T03:14:25.075Z,15.10
2023-05-22T03:15:25.401Z,15.39
2023-05-22T03:16:24.465Z,15.60
2023-05-22T03:17:24.516Z,16.39
2023-05-22T03:18:27.267Z,15.30
2023-05-22T03:19:24.650Z,16
2023-05-22T03:20:24.861Z,15.5
2023-05-22T03:21:24.690Z,15.30
2023-05-22T03:22:24.576Z,14.89
2023-05-22T03:23:43.392Z,15.39
2023-05-22T03:24:24.210Z,15.80
2023-05-22T03:25:43.928Z,14.80
2023-05-22T03:26:24.613Z,15.80
2023-05-22T03:27:24.277Z,16.10
2023-05-22T03:28:25.004Z,14.39
2023-05-22T03:29:24.916Z,15.30
2023-05-22T03:30:24.832Z,16.5
2023-05-22T03:31:46.345Z,15.30
2023-05-22T03:32:25.160Z,15.69
2023-05-22T03:33:47.082Z,15.5
2023-05-22T03:34:25.193Z,15.80
2023-05-22T03:35:24.809Z,14.80
2023-05-22T03:36:24.628Z,15.80
2023-05-22T03:37:24.387Z,16.5
2023-05-22T03:38:24.272Z,15.39
2023-05-22T03:39:24.250Z,16.10
2023-05-22T03:40:24.583Z,16.39
2023-05-22T03:41:24.625Z,15.39
2023-05-22T03:42:24.562Z,16.20
2023-05-22T03:43:24.704Z,16.5
2023-05-22T03:44:24.691Z,16.60
2023-05-22T03:45:25.162Z,16.5
2023-05-22T03:46:25.350Z,16.39
2023-05-22T03:47:24.911Z,16.70
2023-05-22T03:48:24.985Z,17.20
2023-05-22T03:49:24.681Z,16.79
2023-05-22T03:50:24.841Z,18.39
2023-05-22T03:51:24.584Z,16.70
2023-05-22T03:52:24.525Z,16.79
2023-05-22T03:53:24.495Z,17.29
2023-05-22T03:54:24.620Z,16.5
2023-05-22T03:55:24.886Z,17.60
2023-05-22T03:56:24.821Z,18.5
2023-05-22T03:57:24.599Z,18.10
2023-05-22T03:58:24.686Z,18.70
2023-05-22T03:59:24.706Z,17.70
2023-05-22T04:00:27.017Z,18.5
2023-05-22T04:01:25.127Z,17.70
2023-05-22T04:02:25.356Z,17.5
2023-05-22T04:03:24.726Z,17.89
2023-05-22T04:04:24.920Z,17.20
2023-05-22T04:05:24.799Z,16.70
2023-05-22T04:06:24.723Z,20.10
2023-05-22T04:07:24.657Z,18.79
2023-05-22T04:08:24.752Z,18.29
2023-05-22T04:09:24.973Z,19
2023-05-22T04:10:25.126Z,19.79
2023-05-22T04:11:24.711Z,19.60
2023-05-22T04:12:25.013Z,19.20
2023-05-22T04:13:24.824Z,18.29
2023-05-22T04:14:25.031Z,18.39
2023-05-22T04:15:25.681Z,17.60
2023-05-22T04:16:25.673Z,18.29
2023-05-22T04:17:25.099Z,17.89
2023-05-22T04:18:25.034Z,17.70
2023-05-22T04:19:25.150Z,17.60
2023-05-22T04:20:24.723Z,17.89
2023-05-22T04:21:24.461Z,17.10
2023-05-22T04:22:24.651Z,16.79
2023-05-22T04:23:24.925Z,17.79
2023-05-22T04:24:25.051Z,17.70
2023-05-22T04:25:25.225Z,17.60
2023-05-22T04:27:24.829Z,17.39
2023-05-22T04:28:24.968Z,17.79
2023-05-22T04:29:24.909Z,16.29
2023-05-22T04:30:25.111Z,17.39
2023-05-22T04:31:25.047Z,17.60
2023-05-22T04:32:25.253Z,17.10
2023-05-22T04:33:24.824Z,16.70
2023-05-22T04:34:24.606Z,18.20
2023-05-22T04:35:25.091Z,17.39
2023-05-22T04:37:24.634Z,16.70
2023-05-22T04:38:25.188Z,16.29
2023-05-22T04:39:24.922Z,16.70
2023-05-22T04:40:25.363Z,16.5
2023-05-22T04:41:24.720Z,16.10
2023-05-22T04:42:24.756Z,17.60
2023-05-22T04:43:24.794Z,16.29
2023-05-22T04:44:25.116Z,16.89
2023-05-22T04:45:25.250Z,16.39
2023-05-22T04:46:25.098Z,16.29
2023-05-22T04:47:24.769Z,15.80
2023-05-22T04:48:24.928Z,15.5
2023-05-22T04:49:25.021Z,16
2023-05-22T04:50:25.266Z,15.39
2023-05-22T04:51:24.856Z,15.19
2023-05-22T04:52:25.183Z,15.30
2023-05-22T04:53:24.773Z,15.60
2023-05-22T04:54:25.025Z,15
2023-05-22T04:55:25.627Z,16.20
2023-05-22T04:56:35.634Z,15.5
2023-05-22T04:57:25.167Z,16.89
2023-05-22T04:58:25.168Z,16.39
2023-05-22T04:59:25.350Z,15.69
2023-05-22T05:01:24.896Z,15.60
2023-05-22T05:02:25.032Z,15.80
2023-05-22T05:03:24.883Z,15.60
2023-05-22T05:04:25.143Z,15.5
2023-05-22T05:05:24.861Z,17.29
2023-05-22T05:06:24.929Z,16.89
2023-05-22T05:07:25.153Z,15.89
2023-05-22T05:08:25.073Z,15.69
2023-05-22T05:09:24.874Z,18.10
2023-05-22T05:10:25.157Z,18.60
2023-05-22T05:11:24.790Z,17.29
2023-05-22T05:12:24.988Z,17
2023-05-22T05:13:25.059Z,17.79
2023-05-22T05:14:24.497Z,18
2023-05-22T05:15:25.315Z,17.5
2023-05-22T05:16:24.583Z,17.70
2023-05-22T05:17:25.050Z,18.20
2023-05-22T05:18:24.801Z,18.70
2023-05-22T05:19:25.154Z,17.60
2023-05-22T05:20:25.004Z,18
2023-05-22T05:21:24.619Z,18.5
2023-05-22T05:22:24.984Z,16.79
2023-05-22T05:23:24.553Z,16.70
2023-05-22T05:24:24.908Z,16.79
2023-05-22T05:25:25.204Z,16.5
2023-05-22T05:26:25.163Z,17.20
2023-05-22T05:27:24.544Z,16.60
2023-05-22T05:28:24.669Z,16.89
2023-05-22T05:29:24.620Z,17.10
2023-05-22T05:30:25.268Z,18.79
2023-05-22T05:31:24.947Z,20
2023-05-22T05:32:25.409Z,19.29
2023-05-22T05:33:24.829Z,18.10
2023-05-22T05:34:25.157Z,19.5
2023-05-22T05:35:25.380Z,18.79
2023-05-22T05:36:24.385Z,18.39
2023-05-22T05:37:24.625Z,17.89
2023-05-22T05:38:24.879Z,17.79
2023-05-22T05:39:25.056Z,20.20
2023-05-22T05:40:24.616Z,17.89
2023-05-22T05:41:24.893Z,18.29
2023-05-22T05:42:25.097Z,18
2023-05-22T05:43:24.336Z,18.89
2023-05-22T05:44:24.590Z,18.10
2023-05-22T05:45:25.015Z,17.70
2023-05-22T05:46:24.769Z,18.79
2023-05-22T05:47:24.739Z,18.39
2023-05-22T05:48:25.229Z,19.5
2023-05-22T05:49:24.542Z,18.20
2023-05-22T05:50:25.175Z,19.39
2023-05-22T05:51:24.941Z,17.70
2023-05-22T05:52:24.839Z,18.70
2023-05-22T05:53:25.204Z,19.5
2023-05-22T05:54:25.053Z,19.79
2023-05-22T05:55:25.490Z,19.70
2023-05-22T05:56:24.931Z,17.60
2023-05-22T05:57:25.086Z,17.79
2023-05-22T05:58:24.745Z,16.79
2023-05-22T05:59:24.956Z,20.39
2023-05-22T06:00:25.784Z,17.29
2023-05-22T06:01:25.111Z,17.89
2023-05-22T06:02:25.175Z,18.20
2023-05-22T06:03:24.850Z,16.79
2023-05-22T06:04:25.453Z,18.89
2023-05-22T06:05:24.878Z,18.20
2023-05-22T06:06:24.695Z,18.39
2023-05-22T06:07:25.049Z,16.89
2023-05-22T06:08:25.023Z,16.5
2023-05-22T06:09:25.426Z,16.29
2023-05-22T06:10:24.892Z,17.10
2023-05-22T06:11:25.020Z,16.70
2023-05-22T06:12:25.117Z,16.79
2023-05-22T06:13:24.445Z,17.79
2023-05-22T06:14:24.560Z,17.10
2023-05-22T06:15:25.183Z,15.60
2023-05-22T06:16:25.033Z,17.60
2023-05-22T06:17:24.611Z,16.89
2023-05-22T06:18:25.016Z,19.39
2023-05-22T06:19:24.696Z,17.29
2023-05-22T06:20:25.065Z,18
2023-05-22T06:21:24.536Z,18.89
2023-05-22T06:22:24.856Z,17.60
2023-05-22T06:23:25.042Z,17.89
2023-05-22T06:24:25.237Z,19.60
2023-05-22T06:25:24.924Z,19.39
2023-05-22T06:27:25.262Z,17.89
2023-05-22T06:28:24.689Z,19.20
2023-05-22T06:29:24.879Z,20
2023-05-22T06:30:38.951Z,20.5
2023-05-22T06:31:24.734Z,19.39
2023-05-22T06:32:25.271Z,19.70
2023-05-22T06:33:25.050Z,20.79
2023-05-22T06:34:24.690Z,20.89
2023-05-22T06:35:25.472Z,20.10
2023-05-22T06:37:24.819Z,21.79
2023-05-22T06:38:25.048Z,20.39
2023-05-22T06:39:25.291Z,19.5
2023-05-22T06:40:24.711Z,20.10
2023-05-22T06:41:24.440Z,19.20
2023-05-22T06:42:25.089Z,17.39
2023-05-22T06:43:24.363Z,19.70
2023-05-22T06:45:25.390Z,19.89
2023-05-22T06:46:26.133Z,20.5
2023-05-22T06:47:24.884Z,19.5
2023-05-22T06:48:25.152Z,21.39
2023-05-22T06:49:24.728Z,22
2023-05-22T06:50:25.279Z,20.10
2023-05-22T06:51:24.781Z,20
2023-05-22T06:52:25.331Z,18.10
2023-05-22T06:53:24.444Z,20.39
2023-05-22T06:54:24.825Z,19.60
2023-05-22T06:55:25.570Z,18.5
2023-05-22T06:56:24.873Z,18.60
2023-05-22T06:57:25.366Z,17.79
2023-05-22T06:58:25.063Z,16
2023-05-22T06:59:24.733Z,16.5
2023-05-22T07:00:26.144Z,17.5
2023-05-22T07:01:25.183Z,19
2023-05-22T07:02:24.844Z,19.70
2023-05-22T07:03:25.307Z,17.89
2023-05-22T07:04:25.072Z,17.20
2023-05-22T07:05:25.108Z,19.89
2023-05-22T07:06:24.764Z,19.20
2023-05-22T07:07:25.203Z,19.79
2023-05-22T07:08:24.643Z,18.70
2023-05-22T07:09:25.039Z,17
2023-05-22T07:10:24.945Z,18.60
2023-05-22T07:11:24.607Z,18.5
2023-05-22T07:12:24.592Z,16.10
2023-05-22T07:13:24.875Z,19.89
2023-05-22T07:15:25.436Z,18.70
2023-05-22T07:16:24.563Z,18.10
2023-05-22T07:17:25.093Z,19.5
2023-05-22T07:18:25.109Z,18.29
2023-05-22T07:19:24.786Z,17.70
2023-05-22T07:20:25.157Z,18.20
2023-05-22T07:21:24.853Z,18.70
2023-05-22T07:22:24.883Z,19.5
2023-05-22T07:23:26.237Z,18.60
2023-05-22T07:24:24.600Z,19.10
2023-05-22T07:25:25.132Z,18.5
2023-05-22T07:26:24.354Z,19.5
2023-05-22T07:27:24.437Z,17.60
2023-05-22T07:28:24.831Z,17.79
2023-05-22T07:29:24.755Z,18.39
2023-05-22T07:30:25.419Z,18.89
2023-05-22T07:31:25.260Z,17.60
2023-05-22T07:33:29.905Z,18.70
2023-05-22T07:34:25.094Z,17.79
2023-05-22T07:35:25.206Z,18.10
2023-05-22T07:36:24.513Z,18
2023-05-22T07:37:24.728Z,19
2023-05-22T07:38:24.857Z,17.39
2023-05-22T07:39:25.218Z,16.79
2023-05-22T07:40:26.465Z,15.39
2023-05-22T07:41:24.974Z,17.89
2023-05-22T07:42:25.125Z,15.5
2023-05-22T07:43:24.726Z,17.60
2023-05-22T07:44:24.803Z,18.10
2023-05-22T07:45:33.260Z,16.60
2023-05-22T07:46:24.927Z,15.30
2023-05-22T07:47:25.078Z,17.10
2023-05-22T07:48:24.923Z,17.79
2023-05-22T07:49:25.098Z,18.79
2023-05-22T07:50:25.094Z,17.39
2023-05-22T07:52:24.989Z,16.39
2023-05-22T07:53:25.306Z,16.60
2023-05-22T07:54:24.812Z,16
2023-05-22T07:55:25.239Z,17.29
2023-05-22T07:56:25.030Z,17.39
2023-05-22T07:57:24.575Z,15.89
2023-05-22T07:58:24.698Z,18.20
2023-05-22T07:59:24.629Z,16.29
2023-05-22T08:00:25.806Z,16.39
2023-05-22T08:01:39.070Z,15.30
2023-05-22T08:02:24.536Z,16.39
2023-05-22T08:03:39.751Z,14.10
2023-05-22T08:04:24.810Z,16
2023-05-22T08:05:39.124Z,16.79
2023-05-22T08:06:24.759Z,15.60
2023-05-22T08:07:25.074Z,16
2023-05-22T08:08:24.501Z,15.69
2023-05-22T08:09:25.043Z,15.10
2023-05-22T08:10:26.470Z,14.10
2023-05-22T08:11:24.936Z,15.39
2023-05-22T08:12:25.128Z,16.39
2023-05-22T08:14:24.691Z,16.60
2023-05-22T08:15:25.312Z,16.20
2023-05-22T08:16:25.014Z,15.69
2023-05-22T08:17:24.976Z,16.29
2023-05-22T08:18:25.244Z,15.69
2023-05-22T08:19:46.864Z,16.70
2023-05-22T08:20:25.811Z,16.60
2023-05-22T08:21:24.891Z,16.5
2023-05-22T08:22:25.258Z,15.89
2023-05-22T08:23:24.582Z,16
2023-05-22T08:24:25.182Z,16.20
2023-05-22T08:25:24.881Z,15.89
2023-05-22T08:26:25.058Z,15.39
2023-05-22T08:27:24.576Z,17.20
2023-05-22T08:28:24.727Z,15.5
2023-05-22T08:29:24.785Z,16.20
2023-05-22T08:30:25.630Z,15.60
2023-05-22T08:31:24.891Z,16.39
2023-05-22T08:32:25.205Z,15.5
2023-05-22T08:33:24.605Z,16.20
2023-05-22T08:34:24.790Z,15.5
2023-05-22T08:35:25.043Z,14.80
2023-05-22T08:36:25.039Z,15.80
2023-05-22T08:37:25.328Z,15.69
2023-05-22T08:38:24.992Z,15.5
2023-05-22T08:39:25.243Z,16
2023-05-22T08:40:24.737Z,14.60
2023-05-22T08:41:24.929Z,15.60
2023-05-22T08:42:25.055Z,16.39
2023-05-22T08:43:24.975Z,16.60
2023-05-22T08:44:25.130Z,17.20
2023-05-22T08:45:25.237Z,15.39
2023-05-22T08:46:24.461Z,17.10
2023-05-22T08:47:24.932Z,15.60
2023-05-22T08:48:24.993Z,16.5
2023-05-22T08:49:25.272Z,16.60
2023-05-22T08:50:25.080Z,17.10
2023-05-22T08:51:25.148Z,15.39
2023-05-22T08:52:25.496Z,15.69
2023-05-22T08:53:25.281Z,15.39
2023-05-22T08:54:24.644Z,14.69
2023-05-22T08:55:25.621Z,16.29
2023-05-22T08:56:26.697Z,16.20
2023-05-22T08:58:25.611Z,16.60
2023-05-22T08:59:25.179Z,16.70
2023-05-22T09:00:25.771Z,15.39
2023-05-22T09:01:24.776Z,17.60
2023-05-22T09:02:24.813Z,17.10
2023-05-22T09:04:24.832Z,17.79
2023-05-22T09:05:25.616Z,18.70
2023-05-22T09:07:24.818Z,19.20
2023-05-22T09:08:24.990Z,20.89
2023-05-22T09:09:25.245Z,20.5
2023-05-22T09:10:25.266Z,19.79
2023-05-22T09:11:25.186Z,19.89
2023-05-22T09:12:24.797Z,21.39
2023-05-22T09:13:25.476Z,18.5
2023-05-22T09:14:24.975Z,17.20
2023-05-22T09:15:25.581Z,17.89
2023-05-22T09:16:25.151Z,18.5
2023-05-22T09:17:24.724Z,17.60
2023-05-22T09:18:25.191Z,21.60
2023-05-22T09:19:24.964Z,20.70
2023-05-22T09:20:25.103Z,21
2023-05-22T09:21:30.283Z,20.60
2023-05-22T09:22:25.253Z,19.60
2023-05-22T09:23:24.996Z,20.29
2023-05-22T09:25:24.923Z,20.70
2023-05-22T09:26:25.279Z,19.20
2023-05-22T09:27:24.672Z,19.60
2023-05-22T09:28:25.136Z,18.39
2023-05-22T09:29:24.858Z,19.20
2023-05-22T09:30:25.848Z,21.10
2023-05-22T09:31:24.628Z,22
2023-05-22T09:32:25.230Z,19.29
2023-05-22T09:33:24.903Z,17.39
2023-05-22T09:34:24.867Z,19.20
2023-05-22T09:35:25.412Z,21.39
2023-05-22T09:36:25.085Z,21.20
2023-05-22T09:37:24.695Z,22.20
2023-05-22T09:38:25.014Z,20.39
2023-05-22T09:39:25.087Z,21.5
2023-05-22T09:40:25.381Z,20.5
2023-05-22T09:41:25.210Z,22.5
2023-05-22T09:42:24.760Z,20.79
2023-05-22T09:43:24.762Z,21
2023-05-22T09:44:25.314Z,20.60
2023-05-22T09:45:25.082Z,20.79
2023-05-22T09:46:24.907Z,20.70
2023-05-22T09:47:25.001Z,20.60
2023-05-22T09:48:24.835Z,20.39
2023-05-22T09:49:25.265Z,18.79
2023-05-22T09:50:24.984Z,20.79
2023-05-22T09:51:24.855Z,19.60
2023-05-22T09:52:25.581Z,21.60
2023-05-22T09:53:24.912Z,21
2023-05-22T09:54:24.602Z,20.5
2023-05-22T09:55:25.153Z,20.89
2023-05-22T09:56:37.796Z,20.29
2023-05-22T09:57:25.187Z,19.29
2023-05-22T09:58:24.797Z,19.60
2023-05-22T09:59:25.465Z,19.89
2023-05-22T10:00:25.725Z,18.79
2023-05-22T10:01:25.005Z,20.10
2023-05-22T10:02:29.892Z,18.79
2023-05-22T10:03:24.525Z,19.20
2023-05-22T10:04:25.234Z,18.20
2023-05-22T10:05:25.244Z,17.89
2023-05-22T10:06:30.356Z,17.5
2023-05-22T10:07:25.171Z,18.70
2023-05-22T10:08:26.606Z,17.20
2023-05-22T10:09:25.788Z,16.70
2023-05-22T10:10:33.241Z,18.79
2023-05-22T10:11:24.957Z,19.20
2023-05-22T10:12:32.849Z,20
2023-05-22T10:13:25.229Z,18.89
2023-05-22T10:14:24.625Z,19.89
2023-05-22T10:15:25.461Z,18.89
2023-05-22T10:16:24.731Z,20.60
2023-05-22T10:18:25.186Z,20
2023-05-22T10:19:24.806Z,19.29
2023-05-22T10:20:25.729Z,20.79
2023-05-22T10:21:25.488Z,19.70
2023-05-22T10:22:38.972Z,19.39
2023-05-22T10:23:24.398Z,20
2023-05-22T10:24:24.988Z,19.5
2023-05-22T10:25:25.631Z,20.29
2023-05-22T10:26:39.198Z,19
2023-05-22T10:28:24.631Z,20.60
2023-05-22T10:29:25.373Z,20.10
2023-05-22T10:30:25.441Z,19.39
2023-05-22T10:31:25.065Z,18.10
2023-05-22T10:32:44.405Z,18
2023-05-22T10:33:25.462Z,17.70
2023-05-22T10:34:26.004Z,19.70
2023-05-22T10:35:25.667Z,20.89
2023-05-22T10:36:45.465Z,20.5
2023-05-22T10:37:26.471Z,20
2023-05-22T10:38:24.929Z,20.5
2023-05-22T10:39:25.646Z,20
2023-05-22T10:40:25.583Z,18.5
2023-05-22T10:41:24.817Z,19.20
2023-05-22T10:42:43.996Z,18.10
2023-05-22T10:43:25.382Z,18.5
2023-05-22T10:44:24.802Z,21.39
2023-05-22T10:45:25.721Z,19.5
2023-05-22T10:46:25.061Z,18.10
2023-05-22T10:47:24.856Z,20.89
2023-05-22T10:48:25.200Z,20.70
2023-05-22T10:49:24.999Z,19.29
2023-05-22T10:50:25.627Z,21.5
2023-05-22T10:51:25.107Z,18.79
2023-05-22T10:52:25.120Z,21.20
2023-05-22T10:53:25.311Z,21
2023-05-22T10:54:24.921Z,19.70
2023-05-22T10:55:25.642Z,19.79
2023-05-22T10:56:25.757Z,21
2023-05-22T10:57:24.801Z,20.70
2023-05-22T10:58:24.588Z,19.70
2023-05-22T10:59:25.279Z,17.70
2023-05-22T11:00:25.899Z,19.39
2023-05-22T11:01:25.035Z,20.5
2023-05-22T11:02:25.276Z,18.89
2023-05-22T11:03:25.069Z,20
2023-05-22T11:04:24.925Z,19
2023-05-22T11:05:25.176Z,18.89
2023-05-22T11:06:25.049Z,22.70
2023-05-22T11:07:24.948Z,21.60
2023-05-22T11:08:25.125Z,19.39
2023-05-22T11:09:25.482Z,20.20
2023-05-22T11:10:25.234Z,20.89
2023-05-22T11:11:25.277Z,22.10
2023-05-22T11:12:25.423Z,21.5
2023-05-22T11:13:28.127Z,22.89
2023-05-22T11:14:25.483Z,21
2023-05-22T11:15:25.719Z,20.79
2023-05-22T11:16:25.524Z,22
2023-05-22T11:17:25.258Z,20.89
2023-05-22T11:18:24.786Z,21
2023-05-22T11:19:25.143Z,20.5
2023-05-22T11:20:25.124Z,21.39
2023-05-22T11:21:25.213Z,18.39
2023-05-22T11:22:24.865Z,19
2023-05-22T11:23:25.369Z,19.79
2023-05-22T11:24:24.687Z,21.10
2023-05-22T11:25:25.217Z,21.60
2023-05-22T11:26:27.183Z,20.39
2023-05-22T11:27:25.513Z,19.10
2023-05-22T11:28:25.199Z,18.70
2023-05-22T11:29:24.612Z,18.20
2023-05-22T11:30:25.393Z,17.79
2023-05-22T11:31:24.791Z,17.20
2023-05-22T11:32:24.953Z,18.10
2023-05-22T11:33:25.398Z,17.79
2023-05-22T11:34:24.915Z,17.60
2023-05-22T11:35:25.481Z,16.20
2023-05-22T11:36:24.968Z,15.89
2023-05-22T11:37:25.119Z,16.89
2023-05-22T11:38:24.612Z,17.29
2023-05-22T11:39:25.081Z,18
2023-05-22T11:40:25.459Z,19.39
2023-05-22T11:41:25.021Z,17.20
2023-05-22T11:42:24.770Z,18
2023-05-22T11:43:25.550Z,17.60
2023-05-22T11:44:25.026Z,17.20
2023-05-22T11:45:25.347Z,19.39
2023-05-22T11:46:25.008Z,17.39
2023-05-22T11:47:24.954Z,18.20
2023-05-22T11:49:24.800Z,19.29
2023-05-22T11:50:40.864Z,19.10
2023-05-22T11:51:24.881Z,18.5
2023-05-22T11:52:25.541Z,17.5
2023-05-22T11:53:25.221Z,17.89
2023-05-22T11:54:24.937Z,17
2023-05-22T11:56:25.248Z,18.39
2023-05-22T11:57:24.884Z,19.5
2023-05-22T11:58:24.937Z,17.79
2023-05-22T11:59:24.886Z,16.70
2023-05-22T12:00:26.592Z,17.70
2023-05-22T12:01:25.017Z,17.29
2023-05-22T12:02:24.873Z,18.39
2023-05-22T12:03:25.965Z,17
2023-05-22T12:04:24.832Z,18.70
2023-05-22T12:05:25.107Z,18.20
2023-05-22T12:06:24.788Z,17.10
2023-05-22T12:07:25.301Z,19.70
2023-05-22T12:08:25.055Z,19.5
2023-05-22T12:09:24.713Z,17.39
2023-05-22T12:10:25.586Z,18.89
2023-05-22T12:11:24.949Z,19.79
2023-05-22T12:12:24.923Z,18.10
2023-05-22T12:13:24.798Z,16.89
2023-05-22T12:14:25.369Z,16.39
2023-05-22T12:15:25.290Z,17.70
2023-05-22T12:16:24.744Z,16.79
2023-05-22T12:17:25.277Z,19.5
2023-05-22T12:18:24.779Z,18.89
2023-05-22T12:19:25.048Z,17.70
2023-05-22T12:20:25.849Z,19.10
2023-05-22T12:21:25.441Z,19.20
2023-05-22T12:22:25.233Z,18.39
2023-05-22T12:23:24.737Z,21.70
2023-05-22T12:24:25.220Z,20.70
2023-05-22T12:25:30.197Z,19.10
2023-05-22T12:26:24.859Z,16.79
2023-05-22T12:27:25.359Z,16.89
2023-05-22T12:28:24.806Z,19.20
2023-05-22T12:29:25.217Z,22.20
2023-05-22T12:31:24.900Z,21.70
2023-05-22T12:32:25.653Z,20.79
2023-05-22T12:33:25.114Z,19.89
2023-05-22T12:34:24.853Z,20.20
2023-05-22T12:35:25.561Z,20.5
2023-05-22T12:36:25.175Z,19.70
2023-05-22T12:37:25.043Z,20.89
2023-05-22T12:38:24.947Z,18.79
2023-05-22T12:39:25.333Z,19.5
2023-05-22T12:40:24.865Z,19.10
2023-05-22T12:41:24.892Z,20.29
2023-05-22T12:42:25.277Z,20.10
2023-05-22T12:43:24.726Z,21.10
2023-05-22T12:44:25.332Z,19.20
2023-05-22T12:45:25.151Z,18.29
2023-05-22T12:46:24.919Z,19.79
2023-05-22T12:47:25.073Z,18.89
2023-05-22T12:48:24.767Z,21.70
2023-05-22T12:49:25.346Z,21.39
2023-05-22T12:50:25.107Z,22.10
2023-05-22T12:51:25.565Z,21.70
2023-05-22T12:52:25.178Z,20.20
2023-05-22T12:53:24.683Z,19.89
2023-05-22T12:54:25.283Z,18.20
2023-05-22T12:55:25.129Z,20.79
2023-05-22T12:56:25.033Z,20.70
2023-05-22T12:57:44.086Z,20.5
2023-05-22T12:58:24.312Z,22
2023-05-22T12:59:25.208Z,21
2023-05-22T13:00:25.835Z,21.5
2023-05-22T13:01:43.838Z,20.89
2023-05-22T13:02:25.639Z,20.10
2023-05-22T13:03:25.413Z,20.5
2023-05-22T13:04:24.838Z,21.29
2023-05-22T13:05:25.899Z,21.39
2023-05-22T13:06:25.440Z,22.29
2023-05-22T13:07:46.698Z,21.89
2023-05-22T13:08:25.354Z,21.5
2023-05-22T13:09:25.046Z,20.89
2023-05-22T13:10:25.549Z,19.70
2023-05-22T13:11:25.139Z,21.60
2023-05-22T13:12:24.560Z,20.70
2023-05-22T13:13:25.342Z,22.89
2023-05-22T13:14:25.054Z,21.39
2023-05-22T13:15:25.048Z,20.5
2023-05-22T13:16:25.291Z,20.10
2023-05-22T13:17:25.217Z,21
2023-05-22T13:18:25.128Z,20.89
2023-05-22T13:20:24.891Z,19.89
2023-05-22T13:21:26.568Z,20.39
2023-05-22T13:22:29.258Z,21.39
2023-05-22T13:23:31.805Z,19.89
2023-05-22T13:24:44.813Z,18.29
2023-05-22T13:25:25.700Z,18.39
2023-05-22T13:26:25.413Z,19
2023-05-22T13:27:25.476Z,18.10
2023-05-22T13:28:25.542Z,18.70
2023-05-22T13:29:25.581Z,17.70
2023-05-22T13:30:25.679Z,19.5
2023-05-22T13:31:24.682Z,17.79
2023-05-22T13:32:25.143Z,18.79
2023-05-22T13:33:24.633Z,20.60
2023-05-22T13:35:25.434Z,19.70
2023-05-22T13:36:25.181Z,19.60
2023-05-22T13:38:25.190Z,18.89
2023-05-22T13:39:24.908Z,19.29